sensor_id;sensor_type;location;lat;lon;timestamp;pressure;altitude;pressure_sealevel;temperature;humidity
16777;BME280;8505;49.456;8.164;2023-08-08T00:02:27;99852.94;;;12.98;83.77
16777;BME280;8505;49.456;8.164;2023-08-08T00:04:56;99851.56;;;12.87;83.85
16777;BME280;8505;49.456;8.164;2023-08-08T00:07:24;99851.38;;;12.74;84.73
16777;BME280;8505;49.456;8.164;2023-08-08T00:09:51;99853.47;;;12.79;84.64
16777;BME280;8505;49.456;8.164;2023-08-08T00:12:19;99852.03;;;12.76;84.38
16777;BME280;8505;49.456;8.164;2023-08-08T00:14:47;99850.94;;;12.71;84.75
16777;BME280;8505;49.456;8.164;2023-08-08T00:17:14;99854.41;;;12.71;85.06
16777;BME280;8505;49.456;8.164;2023-08-08T00:19:43;99854.75;;;12.68;85.38
16777;BME280;8505;49.456;8.164;2023-08-08T00:22:12;99853.66;;;12.63;85.37
16777;BME280;8505;49.456;8.164;2023-08-08T00:24:39;99855.84;;;12.59;85.62
16777;BME280;8505;49.456;8.164;2023-08-08T00:27:07;99852.56;;;12.57;85.66
16777;BME280;8505;49.456;8.164;2023-08-08T00:29:35;99847.41;;;12.55;85.56
16777;BME280;8505;49.456;8.164;2023-08-08T00:32:03;99842.66;;;12.51;85.19
16777;BME280;8505;49.456;8.164;2023-08-08T00:34:31;99846.69;;;12.62;85.56
16777;BME280;8505;49.456;8.164;2023-08-08T00:37:01;99848.41;;;12.54;85.31
16777;BME280;8505;49.456;8.164;2023-08-08T00:39:28;99848.59;;;12.53;85.54
16777;BME280;8505;49.456;8.164;2023-08-08T00:41:56;99840.63;;;12.53;85.75
16777;BME280;8505;49.456;8.164;2023-08-08T00:44:24;99843.44;;;12.37;85.99
16777;BME280;8505;49.456;8.164;2023-08-08T00:46:52;99846.00;;;12.30;86.77
16777;BME280;8505;49.456;8.164;2023-08-08T00:49:20;99839.84;;;12.30;86.84
16777;BME280;8505;49.456;8.164;2023-08-08T00:51:48;99832.16;;;12.20;87.40
16777;BME280;8505;49.456;8.164;2023-08-08T00:54:17;99825.34;;;12.18;87.60
16777;BME280;8505;49.456;8.164;2023-08-08T00:56:54;99825.91;;;12.13;87.79
16777;BME280;8505;49.456;8.164;2023-08-08T00:59:23;99831.97;;;12.22;87.89
16777;BME280;8505;49.456;8.164;2023-08-08T01:01:51;99833.81;;;11.98;88.74
16777;BME280;8505;49.456;8.164;2023-08-08T01:04:19;99830.34;;;11.98;88.76
16777;BME280;8505;49.456;8.164;2023-08-08T01:06:54;99833.53;;;11.93;89.00
16777;BME280;8505;49.456;8.164;2023-08-08T01:09:30;99833.19;;;11.96;89.03
16777;BME280;8505;49.456;8.164;2023-08-08T01:12:00;99830.88;;;11.93;88.78
16777;BME280;8505;49.456;8.164;2023-08-08T01:14:29;99836.06;;;11.87;89.22
16777;BME280;8505;49.456;8.164;2023-08-08T01:17:00;99833.94;;;11.82;89.36
16777;BME280;8505;49.456;8.164;2023-08-08T01:19:29;99822.25;;;11.91;89.15
16777;BME280;8505;49.456;8.164;2023-08-08T01:22:01;99828.34;;;12.00;88.31
16777;BME280;8505;49.456;8.164;2023-08-08T01:24:32;99832.25;;;11.89;88.83
16777;BME280;8505;49.456;8.164;2023-08-08T01:27:04;99830.00;;;11.78;89.38
16777;BME280;8505;49.456;8.164;2023-08-08T01:29:32;99828.81;;;11.81;89.14
16777;BME280;8505;49.456;8.164;2023-08-08T01:32:00;99828.38;;;11.69;89.82
16777;BME280;8505;49.456;8.164;2023-08-08T01:34:28;99825.03;;;11.75;89.91
16777;BME280;8505;49.456;8.164;2023-08-08T01:36:59;99831.84;;;11.69;89.90
16777;BME280;8505;49.456;8.164;2023-08-08T01:39:32;99826.91;;;11.66;90.26
16777;BME280;8505;49.456;8.164;2023-08-08T01:42:01;99829.72;;;11.65;90.15
16777;BME280;8505;49.456;8.164;2023-08-08T01:44:30;99822.47;;;11.59;90.59
16777;BME280;8505;49.456;8.164;2023-08-08T01:46:59;99832.09;;;11.60;90.63
16777;BME280;8505;49.456;8.164;2023-08-08T01:49:26;99832.88;;;11.60;90.39
16777;BME280;8505;49.456;8.164;2023-08-08T01:51:54;99828.59;;;11.59;90.56
16777;BME280;8505;49.456;8.164;2023-08-08T01:54:22;99829.38;;;11.68;90.33
16777;BME280;8505;49.456;8.164;2023-08-08T01:56:51;99821.00;;;11.56;90.62
16777;BME280;8505;49.456;8.164;2023-08-08T01:59:19;99831.59;;;11.56;90.68
16777;BME280;8505;49.456;8.164;2023-08-08T02:01:47;99829.47;;;11.52;90.80
16777;BME280;8505;49.456;8.164;2023-08-08T02:04:15;99824.75;;;11.62;90.51
16777;BME280;8505;49.456;8.164;2023-08-08T02:06:43;99818.28;;;11.64;90.11
16777;BME280;8505;49.456;8.164;2023-08-08T02:09:10;99831.38;;;11.66;89.95
16777;BME280;8505;49.456;8.164;2023-08-08T02:11:41;99830.56;;;11.65;90.18
16777;BME280;8505;49.456;8.164;2023-08-08T02:14:10;99826.53;;;11.69;90.17
16777;BME280;8505;49.456;8.164;2023-08-08T02:16:38;99823.66;;;11.79;89.85
16777;BME280;8505;49.456;8.164;2023-08-08T02:19:08;99813.72;;;11.81;89.60
16777;BME280;8505;49.456;8.164;2023-08-08T02:21:36;99821.84;;;11.80;89.39
16777;BME280;8505;49.456;8.164;2023-08-08T02:24:04;99814.09;;;11.70;89.92
16777;BME280;8505;49.456;8.164;2023-08-08T02:26:32;99812.28;;;11.70;90.29
16777;BME280;8505;49.456;8.164;2023-08-08T02:29:00;99810.94;;;11.74;89.96
16777;BME280;8505;49.456;8.164;2023-08-08T02:31:29;99813.09;;;11.71;89.93
16777;BME280;8505;49.456;8.164;2023-08-08T02:33:56;99812.59;;;11.75;90.30
16777;BME280;8505;49.456;8.164;2023-08-08T02:36:24;99808.06;;;11.84;89.87
16777;BME280;8505;49.456;8.164;2023-08-08T02:38:55;99805.53;;;11.91;89.45
16777;BME280;8505;49.456;8.164;2023-08-08T02:41:22;99815.66;;;11.87;89.49
16777;BME280;8505;49.456;8.164;2023-08-08T02:43:50;99818.25;;;11.95;89.10
16777;BME280;8505;49.456;8.164;2023-08-08T02:46:18;99811.97;;;11.96;89.10
16777;BME280;8505;49.456;8.164;2023-08-08T02:48:47;99815.19;;;12.06;88.95
16777;BME280;8505;49.456;8.164;2023-08-08T02:51:15;99815.47;;;12.11;88.14
16777;BME280;8505;49.456;8.164;2023-08-08T02:53:42;99809.91;;;12.21;87.74
16777;BME280;8505;49.456;8.164;2023-08-08T02:56:10;99811.47;;;12.15;87.35
16777;BME280;8505;49.456;8.164;2023-08-08T02:58:38;99809.91;;;12.21;87.25
16777;BME280;8505;49.456;8.164;2023-08-08T03:01:06;99815.84;;;12.08;87.60
16777;BME280;8505;49.456;8.164;2023-08-08T03:03:34;99815.88;;;12.00;88.23
16777;BME280;8505;49.456;8.164;2023-08-08T03:06:05;99815.56;;;12.03;88.91
16777;BME280;8505;49.456;8.164;2023-08-08T03:08:32;99816.47;;;12.10;88.10
16777;BME280;8505;49.456;8.164;2023-08-08T03:11:00;99817.53;;;12.01;88.43
16777;BME280;8505;49.456;8.164;2023-08-08T03:13:28;99812.06;;;12.03;88.79
16777;BME280;8505;49.456;8.164;2023-08-08T03:15:56;99807.50;;;12.11;87.50
16777;BME280;8505;49.456;8.164;2023-08-08T03:18:24;99800.31;;;11.97;88.11
16777;BME280;8505;49.456;8.164;2023-08-08T03:20:52;99798.19;;;11.93;88.50
16777;BME280;8505;49.456;8.164;2023-08-08T03:23:21;99795.91;;;11.90;88.69
16777;BME280;8505;49.456;8.164;2023-08-08T03:25:50;99795.16;;;11.81;89.23
16777;BME280;8505;49.456;8.164;2023-08-08T03:28:17;99798.84;;;11.72;89.70
16777;BME280;8505;49.456;8.164;2023-08-08T03:30:45;99800.16;;;11.76;89.85
16777;BME280;8505;49.456;8.164;2023-08-08T03:33:13;99797.13;;;11.79;89.90
16777;BME280;8505;49.456;8.164;2023-08-08T03:35:41;99787.00;;;11.83;89.49
16777;BME280;8505;49.456;8.164;2023-08-08T03:38:10;99788.00;;;11.82;89.58
16777;BME280;8505;49.456;8.164;2023-08-08T03:40:39;99785.25;;;11.67;90.11
16777;BME280;8505;49.456;8.164;2023-08-08T03:43:06;99790.13;;;11.63;90.36
16777;BME280;8505;49.456;8.164;2023-08-08T03:45:34;99787.75;;;11.68;90.30
16777;BME280;8505;49.456;8.164;2023-08-08T03:48:02;99789.41;;;11.69;90.64
16777;BME280;8505;49.456;8.164;2023-08-08T03:50:30;99784.16;;;11.61;91.16
16777;BME280;8505;49.456;8.164;2023-08-08T03:52:58;99784.47;;;11.66;90.85
16777;BME280;8505;49.456;8.164;2023-08-08T03:55:25;99785.25;;;11.67;91.17
16777;BME280;8505;49.456;8.164;2023-08-08T03:57:55;99791.59;;;11.66;90.87
16777;BME280;8505;49.456;8.164;2023-08-08T04:00:23;99797.19;;;11.71;90.70
16777;BME280;8505;49.456;8.164;2023-08-08T04:02:50;99803.66;;;11.68;90.70
16777;BME280;8505;49.456;8.164;2023-08-08T04:05:18;99800.38;;;11.66;90.77
16777;BME280;8505;49.456;8.164;2023-08-08T04:07:46;99796.06;;;11.65;90.95
16777;BME280;8505;49.456;8.164;2023-08-08T04:10:14;99800.88;;;11.62;91.22
16777;BME280;8505;49.456;8.164;2023-08-08T04:12:42;99804.50;;;11.69;91.14
16777;BME280;8505;49.456;8.164;2023-08-08T04:15:11;99807.84;;;11.63;91.36
16777;BME280;8505;49.456;8.164;2023-08-08T04:17:39;99801.72;;;11.62;91.63
16777;BME280;8505;49.456;8.164;2023-08-08T04:20:07;99795.69;;;11.77;90.46
16777;BME280;8505;49.456;8.164;2023-08-08T04:22:36;99798.84;;;11.72;90.97
16777;BME280;8505;49.456;8.164;2023-08-08T04:25:05;99795.97;;;11.82;90.75
16777;BME280;8505;49.456;8.164;2023-08-08T04:27:33;99792.16;;;11.84;90.32
16777;BME280;8505;49.456;8.164;2023-08-08T04:30:01;99793.16;;;11.83;90.06
16777;BME280;8505;49.456;8.164;2023-08-08T04:32:30;99790.84;;;12.03;89.94
16777;BME280;8505;49.456;8.164;2023-08-08T04:34:58;99787.84;;;12.21;88.94
16777;BME280;8505;49.456;8.164;2023-08-08T04:37:26;99793.59;;;12.24;88.48
16777;BME280;8505;49.456;8.164;2023-08-08T04:39:54;99804.09;;;12.55;86.96
16777;BME280;8505;49.456;8.164;2023-08-08T04:42:21;99808.41;;;12.71;86.41
16777;BME280;8505;49.456;8.164;2023-08-08T04:44:49;99803.47;;;12.82;85.42
16777;BME280;8505;49.456;8.164;2023-08-08T04:47:17;99804.38;;;12.89;85.17
16777;BME280;8505;49.456;8.164;2023-08-08T04:49:46;99806.38;;;13.02;84.71
16777;BME280;8505;49.456;8.164;2023-08-08T04:52:14;99802.72;;;13.18;83.72
16777;BME280;8505;49.456;8.164;2023-08-08T04:54:41;99810.13;;;13.22;83.46
16777;BME280;8505;49.456;8.164;2023-08-08T04:57:10;99802.63;;;13.47;82.59
16777;BME280;8505;49.456;8.164;2023-08-08T04:59:38;99804.19;;;13.42;82.49
16777;BME280;8505;49.456;8.164;2023-08-08T05:02:05;99804.59;;;13.60;81.78
16777;BME280;8505;49.456;8.164;2023-08-08T05:04:33;99809.91;;;13.60;81.47
16777;BME280;8505;49.456;8.164;2023-08-08T05:07:03;99804.41;;;13.61;81.43
16777;BME280;8505;49.456;8.164;2023-08-08T05:09:31;99806.47;;;13.81;80.42
16777;BME280;8505;49.456;8.164;2023-08-08T05:11:58;99805.75;;;13.72;80.19
16777;BME280;8505;49.456;8.164;2023-08-08T05:14:27;99807.25;;;14.02;79.75
16777;BME280;8505;49.456;8.164;2023-08-08T05:16:54;99811.09;;;14.21;78.60
16777;BME280;8505;49.456;8.164;2023-08-08T05:19:22;99807.72;;;14.34;77.97
16777;BME280;8505;49.456;8.164;2023-08-08T05:21:51;99807.47;;;14.56;77.03
16777;BME280;8505;49.456;8.164;2023-08-08T05:24:20;99800.91;;;14.87;75.85
16777;BME280;8505;49.456;8.164;2023-08-08T05:26:48;99806.25;;;14.87;75.13
16777;BME280;8505;49.456;8.164;2023-08-08T05:29:15;99805.81;;;14.83;75.58
16777;BME280;8505;49.456;8.164;2023-08-08T05:31:43;99803.19;;;14.90;74.82
16777;BME280;8505;49.456;8.164;2023-08-08T05:34:11;99796.91;;;15.04;75.93
16777;BME280;8505;49.456;8.164;2023-08-08T05:36:39;99795.03;;;15.52;73.96
16777;BME280;8505;49.456;8.164;2023-08-08T05:39:07;99790.50;;;15.53;72.73
16777;BME280;8505;49.456;8.164;2023-08-08T05:41:37;99791.16;;;15.68;71.73
16777;BME280;8505;49.456;8.164;2023-08-08T05:44:05;99783.94;;;15.62;71.80
16777;BME280;8505;49.456;8.164;2023-08-08T05:46:32;99787.06;;;16.18;70.41
16777;BME280;8505;49.456;8.164;2023-08-08T05:49:00;99795.91;;;16.32;69.44
16777;BME280;8505;49.456;8.164;2023-08-08T05:51:28;99787.06;;;16.64;67.80
16777;BME280;8505;49.456;8.164;2023-08-08T05:53:56;99793.75;;;16.93;66.61
16777;BME280;8505;49.456;8.164;2023-08-08T05:56:27;99793.44;;;17.21;66.06
16777;BME280;8505;49.456;8.164;2023-08-08T05:59:03;99785.53;;;16.88;66.82
16777;BME280;8505;49.456;8.164;2023-08-08T06:01:31;99790.34;;;17.24;65.83
16777;BME280;8505;49.456;8.164;2023-08-08T06:03:59;99789.00;;;17.46;64.63
16777;BME280;8505;49.456;8.164;2023-08-08T06:06:26;99794.38;;;16.95;66.51
16777;BME280;8505;49.456;8.164;2023-08-08T06:08:54;99793.69;;;17.13;65.73
16777;BME280;8505;49.456;8.164;2023-08-08T06:11:22;99790.75;;;17.27;66.08
16777;BME280;8505;49.456;8.164;2023-08-08T06:13:50;99795.06;;;17.60;64.48
16777;BME280;8505;49.456;8.164;2023-08-08T06:16:19;99789.13;;;17.96;64.05
16777;BME280;8505;49.456;8.164;2023-08-08T06:18:47;99795.78;;;16.97;65.27
16777;BME280;8505;49.456;8.164;2023-08-08T06:21:15;99791.97;;;17.25;64.50
16777;BME280;8505;49.456;8.164;2023-08-08T06:23:42;99793.06;;;17.55;64.28
16777;BME280;8505;49.456;8.164;2023-08-08T06:26:10;99800.16;;;18.31;61.36
16777;BME280;8505;49.456;8.164;2023-08-08T06:28:38;99798.25;;;18.13;60.66
16777;BME280;8505;49.456;8.164;2023-08-08T06:31:06;99789.38;;;18.12;59.93
16777;BME280;8505;49.456;8.164;2023-08-08T06:33:35;99781.88;;;18.21;61.83
16777;BME280;8505;49.456;8.164;2023-08-08T06:36:03;99785.66;;;18.38;59.62
16777;BME280;8505;49.456;8.164;2023-08-08T06:38:31;99788.72;;;18.17;59.34
16777;BME280;8505;49.456;8.164;2023-08-08T06:41:00;99785.03;;;18.36;57.68
16777;BME280;8505;49.456;8.164;2023-08-08T06:43:29;99790.13;;;18.44;58.39
16777;BME280;8505;49.456;8.164;2023-08-08T06:45:57;99787.44;;;18.44;60.59
16777;BME280;8505;49.456;8.164;2023-08-08T06:48:25;99782.13;;;19.17;56.74
16777;BME280;8505;49.456;8.164;2023-08-08T06:50:54;99775.78;;;19.60;56.35
16777;BME280;8505;49.456;8.164;2023-08-08T06:53:22;99786.09;;;18.78;54.27
16777;BME280;8505;49.456;8.164;2023-08-08T06:55:50;99786.91;;;18.79;54.80
16777;BME280;8505;49.456;8.164;2023-08-08T06:58:18;99774.38;;;18.91;54.32
16777;BME280;8505;49.456;8.164;2023-08-08T07:00:45;99774.97;;;19.11;53.38
16777;BME280;8505;49.456;8.164;2023-08-08T07:03:13;99769.91;;;19.33;52.83
16777;BME280;8505;49.456;8.164;2023-08-08T07:05:41;99775.81;;;18.93;53.81
16777;BME280;8505;49.456;8.164;2023-08-08T07:08:10;99774.97;;;19.41;53.09
16777;BME280;8505;49.456;8.164;2023-08-08T07:10:38;99779.38;;;20.18;51.31
16777;BME280;8505;49.456;8.164;2023-08-08T07:13:06;99777.19;;;20.15;51.28
16777;BME280;8505;49.456;8.164;2023-08-08T07:15:34;99773.44;;;20.28;51.48
16777;BME280;8505;49.456;8.164;2023-08-08T07:18:02;99777.19;;;20.85;49.53
16777;BME280;8505;49.456;8.164;2023-08-08T07:20:29;99771.69;;;20.22;50.04
16777;BME280;8505;49.456;8.164;2023-08-08T07:22:57;99773.06;;;20.01;48.90
16777;BME280;8505;49.456;8.164;2023-08-08T07:25:28;99765.81;;;20.13;49.46
16777;BME280;8505;49.456;8.164;2023-08-08T07:27:56;99781.88;;;20.43;49.98
16777;BME280;8505;49.456;8.164;2023-08-08T07:30:24;99773.44;;;20.28;49.05
16777;BME280;8505;49.456;8.164;2023-08-08T07:32:53;99776.97;;;20.17;49.15
16777;BME280;8505;49.456;8.164;2023-08-08T07:35:24;99775.84;;;19.83;49.54
16777;BME280;8505;49.456;8.164;2023-08-08T07:37:51;99780.19;;;19.06;51.40
16777;BME280;8505;49.456;8.164;2023-08-08T07:40:20;99785.19;;;19.03;52.32
16777;BME280;8505;49.456;8.164;2023-08-08T07:42:49;99785.25;;;19.14;51.59
16777;BME280;8505;49.456;8.164;2023-08-08T07:45:18;99779.06;;;19.62;51.20
16777;BME280;8505;49.456;8.164;2023-08-08T07:47:45;99774.63;;;19.56;50.74
16777;BME280;8505;49.456;8.164;2023-08-08T07:50:13;99770.97;;;20.15;49.90
16777;BME280;8505;49.456;8.164;2023-08-08T07:52:41;99773.59;;;21.08;47.66
16777;BME280;8505;49.456;8.164;2023-08-08T07:55:09;99776.38;;;20.62;47.90
16777;BME280;8505;49.456;8.164;2023-08-08T07:57:37;99773.75;;;19.25;50.10
16777;BME280;8505;49.456;8.164;2023-08-08T08:00:07;99777.97;;;18.85;52.01
16777;BME280;8505;49.456;8.164;2023-08-08T08:02:38;99769.75;;;19.16;50.95
16777;BME280;8505;49.456;8.164;2023-08-08T08:05:07;99767.66;;;19.78;49.43
16777;BME280;8505;49.456;8.164;2023-08-08T08:07:37;99763.94;;;20.02;49.13
16777;BME280;8505;49.456;8.164;2023-08-08T08:10:07;99762.38;;;19.71;49.03
16777;BME280;8505;49.456;8.164;2023-08-08T08:12:36;99763.47;;;19.52;48.65
16777;BME280;8505;49.456;8.164;2023-08-08T08:15:07;99767.75;;;19.71;49.10
16777;BME280;8505;49.456;8.164;2023-08-08T08:17:35;99766.59;;;19.67;48.55
16777;BME280;8505;49.456;8.164;2023-08-08T08:20:03;99769.50;;;19.66;48.44
16777;BME280;8505;49.456;8.164;2023-08-08T08:22:32;99761.84;;;19.51;48.16
16777;BME280;8505;49.456;8.164;2023-08-08T08:25:00;99765.06;;;19.12;49.99
16777;BME280;8505;49.456;8.164;2023-08-08T08:27:29;99765.59;;;19.50;49.19
16777;BME280;8505;49.456;8.164;2023-08-08T08:29:56;99772.25;;;20.01;47.72
16777;BME280;8505;49.456;8.164;2023-08-08T08:32:25;99766.66;;;20.26;47.25
16777;BME280;8505;49.456;8.164;2023-08-08T08:34:53;99769.00;;;19.99;47.41
16777;BME280;8505;49.456;8.164;2023-08-08T08:37:21;99759.25;;;19.86;47.00
16777;BME280;8505;49.456;8.164;2023-08-08T08:39:49;99759.00;;;19.76;47.10
16777;BME280;8505;49.456;8.164;2023-08-08T08:42:17;99760.53;;;19.84;47.89
16777;BME280;8505;49.456;8.164;2023-08-08T08:44:45;99764.47;;;20.46;46.70
16777;BME280;8505;49.456;8.164;2023-08-08T08:47:14;99760.28;;;21.02;45.35
16777;BME280;8505;49.456;8.164;2023-08-08T08:49:46;99753.63;;;20.92;45.87
16777;BME280;8505;49.456;8.164;2023-08-08T08:52:13;99752.38;;;21.12;43.61
16777;BME280;8505;49.456;8.164;2023-08-08T08:54:42;99755.50;;;21.32;43.96
16777;BME280;8505;49.456;8.164;2023-08-08T08:57:10;99750.59;;;20.89;45.11
16777;BME280;8505;49.456;8.164;2023-08-08T08:59:38;99749.53;;;20.90;44.80
16777;BME280;8505;49.456;8.164;2023-08-08T09:02:06;99734.72;;;21.44;44.10
16777;BME280;8505;49.456;8.164;2023-08-08T09:04:34;99736.91;;;22.26;41.69
16777;BME280;8505;49.456;8.164;2023-08-08T09:07:06;99739.91;;;22.46;40.04
16777;BME280;8505;49.456;8.164;2023-08-08T09:09:34;99737.34;;;22.56;41.24
16777;BME280;8505;49.456;8.164;2023-08-08T09:12:05;99747.94;;;22.63;40.71
16777;BME280;8505;49.456;8.164;2023-08-08T09:14:33;99742.78;;;22.99;40.84
16777;BME280;8505;49.456;8.164;2023-08-08T09:17:01;99738.53;;;22.27;41.87
16777;BME280;8505;49.456;8.164;2023-08-08T09:19:29;99737.91;;;22.19;42.15
16777;BME280;8505;49.456;8.164;2023-08-08T09:21:56;99737.28;;;22.51;42.11
16777;BME280;8505;49.456;8.164;2023-08-08T09:24:26;99737.03;;;21.69;42.92
16777;BME280;8505;49.456;8.164;2023-08-08T09:26:54;99732.81;;;22.23;42.68
16777;BME280;8505;49.456;8.164;2023-08-08T09:29:22;99734.84;;;22.33;42.34
16777;BME280;8505;49.456;8.164;2023-08-08T09:31:50;99723.84;;;22.01;41.77
16777;BME280;8505;49.456;8.164;2023-08-08T09:34:18;99723.66;;;21.91;41.24
16777;BME280;8505;49.456;8.164;2023-08-08T09:36:46;99718.47;;;21.56;42.21
16777;BME280;8505;49.456;8.164;2023-08-08T09:39:14;99719.56;;;21.71;41.75
16777;BME280;8505;49.456;8.164;2023-08-08T09:41:45;99724.38;;;21.69;42.02
16777;BME280;8505;49.456;8.164;2023-08-08T09:44:13;99724.53;;;21.46;41.58
16777;BME280;8505;49.456;8.164;2023-08-08T09:46:41;99718.59;;;21.77;41.79
16777;BME280;8505;49.456;8.164;2023-08-08T09:49:10;99724.78;;;22.67;40.70
16777;BME280;8505;49.456;8.164;2023-08-08T09:51:38;99713.38;;;22.21;41.74
16777;BME280;8505;49.456;8.164;2023-08-08T09:54:06;99710.34;;;22.56;41.01
16777;BME280;8505;49.456;8.164;2023-08-08T09:56:34;99722.63;;;22.47;40.69
16777;BME280;8505;49.456;8.164;2023-08-08T09:59:05;99718.13;;;21.97;40.48
16777;BME280;8505;49.456;8.164;2023-08-08T10:01:33;99718.28;;;22.07;40.31
16777;BME280;8505;49.456;8.164;2023-08-08T10:04:03;99718.22;;;22.02;40.03
16777;BME280;8505;49.456;8.164;2023-08-08T10:06:30;99713.69;;;21.74;40.90
16777;BME280;8505;49.456;8.164;2023-08-08T10:09:00;99713.44;;;23.08;39.33
16777;BME280;8505;49.456;8.164;2023-08-08T10:11:30;99731.13;;;22.55;38.79
16777;BME280;8505;49.456;8.164;2023-08-08T10:14:01;99714.03;;;22.11;38.89
16777;BME280;8505;49.456;8.164;2023-08-08T10:16:32;99722.91;;;22.67;38.70
16777;BME280;8505;49.456;8.164;2023-08-08T10:19:03;99723.19;;;22.49;38.12
16777;BME280;8505;49.456;8.164;2023-08-08T10:21:34;99725.50;;;22.79;37.30
16777;BME280;8505;49.456;8.164;2023-08-08T10:24:06;99715.31;;;22.26;38.99
16777;BME280;8505;49.456;8.164;2023-08-08T10:26:53;99724.22;;;21.93;39.06
16777;BME280;8505;49.456;8.164;2023-08-08T10:29:25;99720.31;;;22.17;39.13
16777;BME280;8505;49.456;8.164;2023-08-08T10:31:59;99700.19;;;22.25;38.26
16777;BME280;8505;49.456;8.164;2023-08-08T10:34:37;99711.19;;;22.78;39.26
16777;BME280;8505;49.456;8.164;2023-08-08T10:37:08;99714.31;;;22.92;38.28
16777;BME280;8505;49.456;8.164;2023-08-08T10:39:36;99713.75;;;22.90;38.64
16777;BME280;8505;49.456;8.164;2023-08-08T10:42:04;99717.59;;;22.72;38.73
16777;BME280;8505;49.456;8.164;2023-08-08T10:44:40;99716.59;;;23.00;38.60
16777;BME280;8505;49.456;8.164;2023-08-08T10:47:11;99705.81;;;23.05;38.01
16777;BME280;8505;49.456;8.164;2023-08-08T10:49:41;99701.06;;;22.90;38.79
16777;BME280;8505;49.456;8.164;2023-08-08T10:52:13;99697.47;;;23.07;38.52
16777;BME280;8505;49.456;8.164;2023-08-08T10:54:52;99703.91;;;22.79;38.37
16777;BME280;8505;49.456;8.164;2023-08-08T10:57:24;99704.97;;;22.99;37.82
16777;BME280;8505;49.456;8.164;2023-08-08T10:59:53;99704.41;;;23.24;37.28
16777;BME280;8505;49.456;8.164;2023-08-08T11:02:22;99683.56;;;23.20;37.76
16777;BME280;8505;49.456;8.164;2023-08-08T11:04:50;99691.78;;;22.81;37.23
16777;BME280;8505;49.456;8.164;2023-08-08T11:07:18;99702.13;;;22.68;38.75
16777;BME280;8505;49.456;8.164;2023-08-08T11:09:46;99696.13;;;22.82;37.78
16777;BME280;8505;49.456;8.164;2023-08-08T11:12:14;99689.94;;;23.35;37.36
16777;BME280;8505;49.456;8.164;2023-08-08T11:14:42;99690.91;;;23.24;37.23
16777;BME280;8505;49.456;8.164;2023-08-08T11:17:10;99703.31;;;22.55;38.42
16777;BME280;8505;49.456;8.164;2023-08-08T11:19:41;99690.66;;;23.53;37.39
16777;BME280;8505;49.456;8.164;2023-08-08T11:22:09;99692.38;;;23.10;37.95
16777;BME280;8505;49.456;8.164;2023-08-08T11:24:38;99698.06;;;22.87;38.20
16777;BME280;8505;49.456;8.164;2023-08-08T11:27:06;99698.63;;;22.89;37.99
16777;BME280;8505;49.456;8.164;2023-08-08T11:29:34;99699.25;;;23.23;37.42
16777;BME280;8505;49.456;8.164;2023-08-08T11:32:02;99699.19;;;22.91;37.87
16777;BME280;8505;49.456;8.164;2023-08-08T11:34:31;99695.06;;;23.10;35.41
16777;BME280;8505;49.456;8.164;2023-08-08T11:37:01;99683.34;;;23.85;35.13
16777;BME280;8505;49.456;8.164;2023-08-08T11:39:29;99689.16;;;23.40;36.01
16777;BME280;8505;49.456;8.164;2023-08-08T11:41:57;99692.84;;;23.29;34.66
16777;BME280;8505;49.456;8.164;2023-08-08T11:44:25;99676.63;;;23.56;34.70
16777;BME280;8505;49.456;8.164;2023-08-08T11:46:53;99682.06;;;23.93;33.89
16777;BME280;8505;49.456;8.164;2023-08-08T11:49:21;99667.97;;;23.91;34.04
16777;BME280;8505;49.456;8.164;2023-08-08T11:51:49;99669.22;;;23.78;33.46
16777;BME280;8505;49.456;8.164;2023-08-08T11:54:18;99673.00;;;23.77;32.55
16777;BME280;8505;49.456;8.164;2023-08-08T11:56:46;99669.72;;;24.54;32.21
16777;BME280;8505;49.456;8.164;2023-08-08T11:59:14;99660.38;;;24.25;31.90
16777;BME280;8505;49.456;8.164;2023-08-08T12:01:42;99661.19;;;23.88;32.67
16777;BME280;8505;49.456;8.164;2023-08-08T12:04:10;99651.22;;;23.57;32.58
16777;BME280;8505;49.456;8.164;2023-08-08T12:06:38;99664.69;;;24.26;31.67
16777;BME280;8505;49.456;8.164;2023-08-08T12:09:11;99662.31;;;23.92;32.68
16777;BME280;8505;49.456;8.164;2023-08-08T12:11:41;99658.78;;;23.55;32.17
16777;BME280;8505;49.456;8.164;2023-08-08T12:14:08;99652.09;;;24.04;32.42
16777;BME280;8505;49.456;8.164;2023-08-08T12:16:37;99658.28;;;23.31;32.66
16777;BME280;8505;49.456;8.164;2023-08-08T12:19:08;99657.13;;;23.86;31.62
16777;BME280;8505;49.456;8.164;2023-08-08T12:21:37;99653.91;;;24.31;31.83
16777;BME280;8505;49.456;8.164;2023-08-08T12:24:06;99652.03;;;23.94;31.51
16777;BME280;8505;49.456;8.164;2023-08-08T12:26:34;99635.78;;;24.31;31.40
16777;BME280;8505;49.456;8.164;2023-08-08T12:29:03;99652.38;;;23.66;33.07
16777;BME280;8505;49.456;8.164;2023-08-08T12:31:31;99651.09;;;23.78;32.85
16777;BME280;8505;49.456;8.164;2023-08-08T12:33:59;99652.28;;;24.35;32.17
16777;BME280;8505;49.456;8.164;2023-08-08T12:36:27;99645.72;;;24.21;32.83
16777;BME280;8505;49.456;8.164;2023-08-08T12:38:54;99649.28;;;23.89;33.21
16777;BME280;8505;49.456;8.164;2023-08-08T12:41:22;99653.59;;;23.85;33.74
16777;BME280;8505;49.456;8.164;2023-08-08T12:43:51;99651.31;;;23.40;34.32
16777;BME280;8505;49.456;8.164;2023-08-08T12:46:20;99640.44;;;23.35;35.07
16777;BME280;8505;49.456;8.164;2023-08-08T12:48:48;99653.31;;;24.24;34.74
16777;BME280;8505;49.456;8.164;2023-08-08T12:51:16;99657.88;;;24.18;33.38
16777;BME280;8505;49.456;8.164;2023-08-08T12:53:44;99646.41;;;24.53;32.76
16777;BME280;8505;49.456;8.164;2023-08-08T12:56:11;99648.13;;;24.79;33.16
16777;BME280;8505;49.456;8.164;2023-08-08T12:58:39;99639.53;;;24.97;32.32
16777;BME280;8505;49.456;8.164;2023-08-08T13:01:07;99642.72;;;24.79;32.97
16777;BME280;8505;49.456;8.164;2023-08-08T13:04:05;99660.69;;;24.38;33.42
16777;BME280;8505;49.456;8.164;2023-08-08T13:06:36;99650.91;;;24.32;34.13
16777;BME280;8505;49.456;8.164;2023-08-08T13:09:03;99646.31;;;23.91;34.49
16777;BME280;8505;49.456;8.164;2023-08-08T13:11:34;99645.66;;;24.15;35.00
16777;BME280;8505;49.456;8.164;2023-08-08T13:14:02;99646.59;;;24.31;34.16
16777;BME280;8505;49.456;8.164;2023-08-08T13:16:30;99654.13;;;24.19;34.38
16777;BME280;8505;49.456;8.164;2023-08-08T13:18:58;99655.00;;;23.56;34.93